createdAt,value
2019-04-29T00:02:07.100Z,13.40
2019-04-29T00:04:35.887Z,14.80
2019-04-29T00:07:04.777Z,12.90
2019-04-29T00:09:33.775Z,11.30
2019-04-29T00:12:02.623Z,15.57
2019-04-29T00:14:32.095Z,12.33
2019-04-29T00:17:12.316Z,15.43
2019-04-29T00:20:00.175Z,13.40
2019-04-29T00:22:29.065Z,15.60
2019-04-29T00:24:57.845Z,13.33
2019-04-29T00:27:26.824Z,13.50
2019-04-29T00:29:55.717Z,12.50
2019-04-29T00:32:24.663Z,14.10
2019-04-29T00:34:55.771Z,16.30
2019-04-29T00:37:43.748Z,13.57
2019-04-29T00:40:31.630Z,16.10
2019-04-29T00:43:19.535Z,13.13
2019-04-29T00:45:48.347Z,14.77
2019-04-29T00:48:17.132Z,12.13
2019-04-29T00:50:46.082Z,11.70
2019-04-29T00:53:14.811Z,11.77
2019-04-29T00:55:43.575Z,12.80
2019-04-29T00:58:12.393Z,13.27
2019-04-29T01:00:41.922Z,12.93
2019-04-29T01:03:10.827Z,13.47
2019-04-29T01:05:39.922Z,12.67
2019-04-29T01:08:08.946Z,13.77
2019-04-29T01:10:37.855Z,11.60
2019-04-29T01:13:06.753Z,12.30
2019-04-29T01:15:35.634Z,11.43
2019-04-29T01:18:04.521Z,12.10
2019-04-29T01:20:35.712Z,10.90
2019-04-29T01:23:04.907Z,11.90
2019-04-29T01:25:34.790Z,12.80
2019-04-29T01:28:22.773Z,11.67
2019-04-29T01:30:55.556Z,10.43
2019-04-29T01:33:24.430Z,13.97
2019-04-29T01:36:04.643Z,10.63
2019-04-29T01:38:33.573Z,11.37
2019-04-29T01:41:08.722Z,10.93
2019-04-29T01:43:56.644Z,11.83
2019-04-29T01:46:25.391Z,13.40
2019-04-29T01:48:54.199Z,14.20
2019-04-29T01:51:23.015Z,15.20
2019-04-29T01:53:52.073Z,10.63
2019-04-29T01:56:20.946Z,13.30
2019-04-29T01:58:49.860Z,14.23
2019-04-29T02:01:18.791Z,11.00
2019-04-29T02:03:47.722Z,14.03
2019-04-29T02:06:16.513Z,17.00
2019-04-29T02:08:45.408Z,19.70
2019-04-29T02:11:14.322Z,11.87
2019-04-29T02:13:43.150Z,15.10
2019-04-29T02:16:12.150Z,18.30
2019-04-29T02:18:41.007Z,15.33
2019-04-29T02:21:13.808Z,11.53
2019-04-29T03:09:19.741Z,13.73
2019-04-29T03:11:48.840Z,10.27
2019-04-29T03:14:20.778Z,14.40
2019-04-29T03:16:49.593Z,9.30
2019-04-29T03:19:27.104Z,8.47
2019-04-29T03:21:57.841Z,8.97
2019-04-29T03:24:26.827Z,7.97
2019-04-29T03:26:55.804Z,7.73
2019-04-29T03:29:24.955Z,8.43
2019-04-29T03:31:54.771Z,8.13
2019-04-29T03:34:23.611Z,7.90
2019-04-29T03:36:52.899Z,9.17
2019-04-29T03:39:23.230Z,7.40
2019-04-29T03:41:52.620Z,6.10
2019-04-29T03:44:21.509Z,6.63
2019-04-29T03:46:50.497Z,7.23
2019-04-29T03:49:19.416Z,6.63
2019-04-29T03:51:48.453Z,6.53
2019-04-29T03:54:17.394Z,7.47
2019-04-29T03:56:46.361Z,10.47
2019-04-29T03:59:17.869Z,8.10
2019-04-29T04:02:05.899Z,9.67
2019-04-29T04:04:53.908Z,6.30
2019-04-29T04:07:41.911Z,8.77
2019-04-29T04:10:11.182Z,7.60
2019-04-29T04:12:42.560Z,9.37
2019-04-29T04:15:11.985Z,7.27
2019-04-29T04:17:48.060Z,7.93
2019-04-29T04:20:21.885Z,9.70
2019-04-29T04:22:52.040Z,6.97
2019-04-29T04:25:20.843Z,6.03
2019-04-29T04:27:49.729Z,5.97
2019-04-29T04:30:20.103Z,6.70
2019-04-29T04:32:49.101Z,6.70
2019-04-29T04:35:22.498Z,5.47
2019-04-29T04:37:54.052Z,5.70
2019-04-29T04:40:29.203Z,7.00
2019-04-29T04:42:58.249Z,5.97
2019-04-29T04:45:27.006Z,5.57
2019-04-29T04:47:55.954Z,7.07
2019-04-29T04:50:30.784Z,6.23
2019-04-29T04:52:55.619Z,5.77
2019-04-29T04:55:27.149Z,5.30
2019-04-29T04:57:55.934Z,10.10
2019-04-29T05:00:26.138Z,9.27
2019-04-29T05:02:55.235Z,12.67
2019-04-29T05:05:52.148Z,13.73
2019-04-29T05:08:21.708Z,7.10
2019-04-29T05:11:04.651Z,7.97
2019-04-29T05:13:33.736Z,10.37
2019-04-29T05:16:02.799Z,6.60
2019-04-29T05:18:31.750Z,8.43
2019-04-29T05:21:00.682Z,9.90
2019-04-29T05:23:29.581Z,8.23
2019-04-29T05:25:58.630Z,6.03
2019-04-29T05:28:28.885Z,6.23
2019-04-29T05:31:00.923Z,7.10
2019-04-29T05:33:29.778Z,6.77
2019-04-29T05:36:10.923Z,7.83
2019-04-29T05:38:51.363Z,6.23
2019-04-29T05:41:21.564Z,7.03
2019-04-29T05:44:09.371Z,5.23
2019-04-29T05:46:43.390Z,14.17
2019-04-29T05:49:14.176Z,5.60
2019-04-29T05:51:50.164Z,5.73
2019-04-29T05:54:19.088Z,6.87
2019-04-29T05:56:48.005Z,5.43
2019-04-29T05:59:16.814Z,7.57
2019-04-29T06:01:47.123Z,7.43
2019-04-29T06:04:18.095Z,5.90
2019-04-29T06:06:46.548Z,4.90
2019-04-29T06:09:16.664Z,5.33
2019-04-29T06:11:45.868Z,5.27
2019-04-29T06:14:14.561Z,7.00
2019-04-29T06:16:43.352Z,7.20
2019-04-29T06:19:12.122Z,5.97
2019-04-29T06:21:40.922Z,5.63
2019-04-29T06:24:09.637Z,8.23
2019-04-29T06:26:38.519Z,8.17
2019-04-29T06:29:07.223Z,7.23
2019-04-29T06:31:35.947Z,6.03
2019-04-29T06:34:05.102Z,8.37
2019-04-29T06:36:35.240Z,4.63
2019-04-29T06:39:06.003Z,7.47
2019-04-29T06:41:34.834Z,4.67
2019-04-29T06:44:06.276Z,5.10
2019-04-29T06:46:34.142Z,5.50
2019-04-29T06:49:10.035Z,4.50
2019-04-29T06:51:33.347Z,4.83
2019-04-29T06:54:03.240Z,6.30
2019-04-29T06:56:32.065Z,10.03
2019-04-29T06:59:00.843Z,6.60
2019-04-29T07:01:33.074Z,9.60
2019-04-29T07:04:01.406Z,7.90
2019-04-29T07:06:30.243Z,7.70
2019-04-29T07:08:59.115Z,7.57
2019-04-29T07:11:31.731Z,12.47
2019-04-29T07:13:59.817Z,9.30
2019-04-29T07:16:31.969Z,9.47
2019-04-29T07:18:59.423Z,10.07
2019-04-29T07:21:28.404Z,10.30
2019-04-29T07:23:59.073Z,8.73
2019-04-29T07:26:28.050Z,10.33
2019-04-29T07:28:57.017Z,9.87
2019-04-29T07:31:28.133Z,10.10
2019-04-29T07:33:59.091Z,9.90
2019-04-29T07:36:34.313Z,10.23
2019-04-29T07:39:04.145Z,12.03
2019-04-29T07:41:33.059Z,11.97
2019-04-29T07:44:07.303Z,16.57
2019-04-29T07:47:02.075Z,13.73
2019-04-29T07:49:35.605Z,13.33
2019-04-29T07:52:14.596Z,13.07
2019-04-29T07:54:48.308Z,13.93
2019-04-29T07:57:16.545Z,12.97
2019-04-29T07:59:46.445Z,12.97
2019-04-29T08:02:15.116Z,13.83
2019-04-29T08:04:43.797Z,11.33
2019-04-29T08:07:12.487Z,17.67
2019-04-29T08:09:44.213Z,17.17
2019-04-29T08:12:12.820Z,15.20
2019-04-29T08:14:41.756Z,17.07
2019-04-29T08:17:10.436Z,18.43
2019-04-29T08:19:39.128Z,19.67
2019-04-29T08:22:07.855Z,20.87
2019-04-29T08:24:37.486Z,23.80
2019-04-29T08:27:06.305Z,16.97
2019-04-29T08:29:35.723Z,17.93
2019-04-29T08:32:05.502Z,24.10
2019-04-29T08:34:34.338Z,21.87
2019-04-29T08:37:03.154Z,18.73
2019-04-29T08:39:33.048Z,18.73
2019-04-29T08:42:08.717Z,19.63
2019-04-29T08:44:54.772Z,19.67
2019-04-29T08:47:31.431Z,22.83
2019-04-29T08:49:56.527Z,20.30
2019-04-29T08:52:25.234Z,24.00
2019-04-29T08:54:55.696Z,26.00
2019-04-29T08:57:24.491Z,25.87
2019-04-29T08:59:53.335Z,25.90
2019-04-29T09:02:34.487Z,25.47
2019-04-29T09:04:53.973Z,24.73
2019-04-29T09:07:23.257Z,25.23
2019-04-29T09:09:56.269Z,21.77
2019-04-29T09:12:24.215Z,26.97
2019-04-29T09:14:53.379Z,23.43
2019-04-29T09:17:22.136Z,23.77
2019-04-29T09:19:50.852Z,23.70
2019-04-29T09:22:21.949Z,25.23
2019-04-29T09:25:09.730Z,26.03
2019-04-29T09:27:40.714Z,28.63
2019-04-29T09:30:10.980Z,32.57
2019-04-29T09:32:39.920Z,27.63
2019-04-29T09:35:08.750Z,30.60
2019-04-29T09:37:39.811Z,26.93
2019-04-29T09:40:11.530Z,26.57
2019-04-29T09:42:59.357Z,34.43
2019-04-29T09:45:39.980Z,25.43
2019-04-29T09:48:08.779Z,31.10
2019-04-29T09:50:39.255Z,28.53
2019-04-29T09:53:08.070Z,27.30
2019-04-29T09:55:40.154Z,25.53
2019-04-29T09:58:07.331Z,26.27
2019-04-29T10:00:46.173Z,27.93
2019-04-29T10:03:29.909Z,28.10
2019-04-29T10:06:06.617Z,29.53
2019-04-29T10:08:35.422Z,29.77
2019-04-29T10:11:05.365Z,28.93
2019-04-29T10:13:34.101Z,30.10
2019-04-29T10:16:16.248Z,30.13
2019-04-29T10:18:51.136Z,27.37
2019-04-29T10:21:21.263Z,33.57
2019-04-29T10:23:50.571Z,29.10
2019-04-29T10:26:19.367Z,35.07
2019-04-29T10:29:07.102Z,30.27
2019-04-29T10:31:36.215Z,24.37
2019-04-29T10:34:06.443Z,28.33
2019-04-29T10:36:35.332Z,29.50
2019-04-29T10:39:25.695Z,25.53
2019-04-29T10:41:54.828Z,32.53
2019-04-29T10:44:37.400Z,27.30
2019-04-29T10:47:25.996Z,25.10
2019-04-29T10:49:57.615Z,26.83
2019-04-29T10:52:27.662Z,28.40
2019-04-29T10:54:56.726Z,29.50
2019-04-29T10:57:25.550Z,28.57
2019-04-29T11:00:03.275Z,33.70
2019-04-29T11:02:37.364Z,28.17
2019-04-29T11:05:25.211Z,28.30
2019-04-29T11:08:02.508Z,34.37
2019-04-29T11:10:31.336Z,30.73
2019-04-29T11:13:00.189Z,33.80
2019-04-29T11:15:32.757Z,39.87
2019-04-29T11:18:03.689Z,35.60
2019-04-29T11:20:32.754Z,26.90
2019-04-29T11:23:20.592Z,31.00
2019-04-29T11:26:11.953Z,36.67
2019-04-29T11:28:40.703Z,31.67
2019-04-29T11:31:13.722Z,37.90
2019-04-29T11:33:59.050Z,29.03
2019-04-29T11:36:27.916Z,33.87
2019-04-29T11:38:56.785Z,38.10
2019-04-29T11:41:27.443Z,30.37
2019-04-29T11:43:56.186Z,30.03
2019-04-29T11:46:25.396Z,30.83
2019-04-29T11:48:55.733Z,36.97
2019-04-29T11:52:05.364Z,33.80
2019-04-29T11:54:17.452Z,31.17
2019-04-29T11:56:42.675Z,36.87
2019-04-29T11:59:30.961Z,42.80
2019-04-29T12:02:12.007Z,37.60
2019-04-29T12:04:47.944Z,32.17
2019-04-29T12:07:16.816Z,39.37
2019-04-29T12:09:45.764Z,35.00
2019-04-29T12:12:16.189Z,33.77
2019-04-29T12:14:54.308Z,34.20
2019-04-29T12:17:30.119Z,39.97
2019-04-29T12:20:08.920Z,41.60
2019-04-29T12:22:48.109Z,43.17
2019-04-29T12:25:08.300Z,37.87
2019-04-29T12:27:40.629Z,37.17
2019-04-29T12:30:11.004Z,45.00
2019-04-29T12:32:49.663Z,47.37
2019-04-29T12:35:30.108Z,40.70
2019-04-29T12:38:20.383Z,39.30
2019-04-29T12:41:20.466Z,53.10
2019-04-29T12:43:59.199Z,39.23
2019-04-29T12:46:34.190Z,50.33
2019-04-29T12:49:03.490Z,45.33
2019-04-29T12:51:33.581Z,38.63
2019-04-29T12:54:02.306Z,57.70
2019-04-29T12:56:36.523Z,45.17
2019-04-29T12:59:05.728Z,44.47
2019-04-29T13:01:58.344Z,50.20
2019-04-29T13:04:45.094Z,61.27
2019-04-29T13:11:04.840Z,46.90
2019-04-29T13:13:33.216Z,64.40
2019-04-29T13:16:20.030Z,54.87
2019-04-29T13:19:10.887Z,47.00
2019-04-29T13:21:29.863Z,53.27
2019-04-29T13:24:13.479Z,54.50
2019-04-29T13:26:33.229Z,52.97
2019-04-29T13:29:03.398Z,63.27
2019-04-29T13:31:39.487Z,58.73
2019-04-29T13:34:22.727Z,52.70
2019-04-29T13:36:42.960Z,63.50
2019-04-29T13:39:11.993Z,60.77
2019-04-29T13:41:56.291Z,61.50
2019-04-29T13:44:19.570Z,50.60
2019-04-29T13:46:56.996Z,66.10
2019-04-29T13:49:31.494Z,54.53
2019-04-29T13:52:00.780Z,54.93
2019-04-29T13:54:37.186Z,54.83
2019-04-29T13:57:15.432Z,52.70
2019-04-29T13:59:50.913Z,54.40
2019-04-29T14:02:33.403Z,51.17
2019-04-29T14:05:05.656Z,61.83
2019-04-29T14:07:34.334Z,53.27
2019-04-29T14:10:05.247Z,54.73
2019-04-29T14:13:00.688Z,51.33
2019-04-29T14:15:04.888Z,47.83
2019-04-29T14:17:35.667Z,50.50
2019-04-29T14:20:05.290Z,56.20
2019-04-29T14:22:34.199Z,58.37
2019-04-29T14:25:03.168Z,51.67
2019-04-29T14:27:32.490Z,52.73
2019-04-29T14:30:07.430Z,51.37
2019-04-29T14:32:42.372Z,50.13
2019-04-29T14:35:22.608Z,53.20
2019-04-29T15:09:47.164Z,53.87
2019-04-29T15:15:34.203Z,65.77
2019-04-29T15:18:38.891Z,51.43
2019-04-29T15:21:10.851Z,56.63
2019-04-29T15:23:39.740Z,56.47
2019-04-29T15:26:08.576Z,56.80
2019-04-29T15:28:50.898Z,61.43
2019-04-29T15:31:20.872Z,56.07
2019-04-29T15:33:49.698Z,52.93
2019-04-29T15:36:18.628Z,53.13
2019-04-29T15:39:07.668Z,55.13
2019-04-29T15:41:18.371Z,53.53
2019-04-29T15:43:48.343Z,53.93
2019-04-29T15:46:20.121Z,53.43
2019-04-29T15:48:49.053Z,50.83
2019-04-29T15:51:17.980Z,54.10
2019-04-29T15:53:46.943Z,52.63
2019-04-29T15:56:28.406Z,54.30
2019-04-29T15:58:49.392Z,54.63
2019-04-29T16:01:27.017Z,53.67
2019-04-29T16:06:39.977Z,55.57
2019-04-29T16:09:41.986Z,57.93
2019-04-29T16:12:18.167Z,52.20
2019-04-29T16:14:49.148Z,56.30
2019-04-29T16:17:20.522Z,51.47
2019-04-29T16:19:52.207Z,57.07
2019-04-29T16:22:24.373Z,51.70
2019-04-29T16:24:59.385Z,60.97
2019-04-29T16:27:31.374Z,55.90
2019-04-29T16:30:00.264Z,59.83
2019-04-29T16:32:37.293Z,60.50
2019-04-29T16:35:06.248Z,66.93
2019-04-29T16:37:38.250Z,58.20
2019-04-29T16:40:07.698Z,56.23
2019-04-29T16:42:55.603Z,55.27
2019-04-29T16:45:32.969Z,53.87
2019-04-29T16:48:01.925Z,50.53
2019-04-29T16:50:41.683Z,58.27
2019-04-29T16:53:10.653Z,57.97
2019-04-29T16:55:43.214Z,77.57
2019-04-29T16:58:17.676Z,56.57
2019-04-29T17:00:46.836Z,69.73
2019-04-29T17:03:11.545Z,57.07
2019-04-29T17:05:44.108Z,56.27
2019-04-29T17:08:15.347Z,58.37
2019-04-29T17:10:55.136Z,57.27
2019-04-29T17:13:24.155Z,57.63
2019-04-29T17:15:53.902Z,64.00
2019-04-29T17:18:22.983Z,60.57
2019-04-29T17:20:52.067Z,61.73
2019-04-29T17:23:24.464Z,58.20
2019-04-29T17:25:51.547Z,77.70
2019-04-29T17:28:29.199Z,62.77
2019-04-29T17:31:17.335Z,57.63
2019-04-29T17:33:50.817Z,52.43
2019-04-29T17:35:17.400Z,57.77
2019-04-29T17:36:23.796Z,51.70
2019-04-29T17:38:52.135Z,47.37
2019-04-29T17:41:21.208Z,50.23
2019-04-29T17:44:08.353Z,52.00
2019-04-29T17:46:49.658Z,51.23
2019-04-29T17:49:30.431Z,51.17
2019-04-29T17:52:02.886Z,55.20
2019-04-29T17:54:34.836Z,60.57
2019-04-29T17:57:28.615Z,50.53
2019-04-29T18:00:10.211Z,52.77
2019-04-29T18:03:08.775Z,49.47
2019-04-29T18:06:05.420Z,42.10
2019-04-29T18:08:56.428Z,44.43
2019-04-29T18:11:28.695Z,43.37
2019-04-29T18:14:01.292Z,44.07
2019-04-29T18:16:52.060Z,50.47
2019-04-29T18:19:47.183Z,53.13
2019-04-29T19:07:52.339Z,39.97
2019-04-29T19:10:18.376Z,46.17
2019-04-29T19:29:18.916Z,34.10
2019-04-29T19:32:01.573Z,37.03
2019-04-29T19:34:50.026Z,36.10
2019-04-29T19:37:32.228Z,42.53
2019-04-29T19:40:08.407Z,29.90
2019-04-29T19:42:46.882Z,31.43
2019-04-29T19:45:29.581Z,29.77
2019-04-29T19:47:59.550Z,28.50
2019-04-29T19:51:14.025Z,37.47
2019-04-29T19:53:31.496Z,32.13
2019-04-29T19:56:06.882Z,55.17
2019-04-29T19:58:39.394Z,34.03
2019-04-29T20:01:23.318Z,36.97
2019-04-29T20:04:22.192Z,29.40
2019-04-29T20:07:11.449Z,33.00
2019-04-29T20:10:03.946Z,34.80
2019-04-29T20:12:31.284Z,45.83
2019-04-29T20:15:11.133Z,34.93
2019-04-29T20:18:10.711Z,31.30
2019-04-29T20:21:08.906Z,31.73
2019-04-29T20:24:09.337Z,38.27
2019-04-29T20:30:15.977Z,34.07
2019-04-29T20:32:36.454Z,37.10
2019-04-29T20:35:12.313Z,38.43
2019-04-29T20:37:43.163Z,36.30
2019-04-29T20:40:16.990Z,36.73
2019-04-29T20:42:49.522Z,32.63
2019-04-29T20:45:27.332Z,38.23
2019-04-29T20:47:57.195Z,31.63
2019-04-29T20:50:26.611Z,41.53
2019-04-29T20:53:05.806Z,42.73
2019-04-29T20:55:39.697Z,27.53
2019-04-29T20:58:08.879Z,42.20
2019-04-29T21:00:39.106Z,32.60
2019-04-29T21:03:11.295Z,36.20
2019-04-29T21:05:48.292Z,32.83
2019-04-29T21:08:16.484Z,35.43
2019-04-29T21:10:44.402Z,33.53
2019-04-29T21:13:36.037Z,45.20
2019-04-29T21:16:15.557Z,38.87
2019-04-29T21:18:56.582Z,42.63
2019-04-29T21:21:25.599Z,37.50
2019-04-29T21:24:06.463Z,35.57
2019-04-29T21:26:44.504Z,39.63
2019-04-29T21:29:15.821Z,27.17
2019-04-29T21:31:42.159Z,27.37
2019-04-29T21:34:11.747Z,26.27
2019-04-29T21:37:01.625Z,24.07
2019-04-29T21:39:49.207Z,28.87
2019-04-29T21:42:37.127Z,25.37
2019-04-29T21:45:08.860Z,34.37
2019-04-29T21:47:44.141Z,25.93
2019-04-29T21:50:08.239Z,24.30
2019-04-29T21:52:37.430Z,23.10
2019-04-29T21:55:10.588Z,23.63
2019-04-29T21:57:40.758Z,25.70
2019-04-29T22:00:10.847Z,30.80
2019-04-29T22:02:41.498Z,35.83
2019-04-29T22:05:14.895Z,31.10
2019-04-29T22:07:46.503Z,37.93
2019-04-29T22:10:12.878Z,27.67
2019-04-29T22:12:41.826Z,39.60
2019-04-29T22:15:10.839Z,35.67
2019-04-29T22:17:39.727Z,33.37
2019-04-29T22:20:10.642Z,31.80
2019-04-29T22:22:48.776Z,33.60
2019-04-29T22:25:17.887Z,33.60
2019-04-29T22:27:55.371Z,29.87
2019-04-29T22:30:26.461Z,29.43
2019-04-29T22:32:58.792Z,28.27
2019-04-29T22:35:27.760Z,24.43
2019-04-29T22:37:56.764Z,27.03
2019-04-29T22:40:25.578Z,31.87
2019-04-29T22:43:16.243Z,31.20
2019-04-29T22:45:47.152Z,30.60
2019-04-29T22:48:19.560Z,23.77
2019-04-29T22:50:47.417Z,26.13
2019-04-29T22:53:17.650Z,26.83
2019-04-29T22:55:48.769Z,24.13
2019-04-29T22:58:17.591Z,29.37
2019-04-29T23:00:46.545Z,33.70
2019-04-29T23:03:15.403Z,27.60
2019-04-29T23:05:46.166Z,36.03
2019-04-29T23:08:15.268Z,33.20
2019-04-29T23:10:45.601Z,33.67
2019-04-29T23:13:14.475Z,27.20
2019-04-29T23:15:43.251Z,27.47
2019-04-29T23:18:23.877Z,31.43
2019-04-29T23:21:03.926Z,32.30
2019-04-29T23:23:38.194Z,39.50
2019-04-29T23:26:07.352Z,28.07
2019-04-29T23:28:36.282Z,29.93
2019-04-29T23:31:05.254Z,29.03
2019-04-29T23:33:36.000Z,35.60
2019-04-29T23:36:04.994Z,36.93
2019-04-29T23:38:33.943Z,24.67
2019-04-29T23:41:02.808Z,24.17
2019-04-29T23:43:31.700Z,32.83
2019-04-29T23:46:00.844Z,25.90
2019-04-29T23:48:38.771Z,30.07
2019-04-29T23:51:00.265Z,25.27
2019-04-29T23:53:29.014Z,30.60
2019-04-29T23:56:00.222Z,27.50
2019-04-29T23:58:37.216Z,24.67
